.
WxDataArchive / Data Records for 2010-08-18
2010-08-17 August 2010 2010-08-19

Data Records for Wednesday, 18 August 2010

Time	Temp	Chill	HIndex	Humid	Dewpt	 Wind 	HiWind	WindDir	Rain 	Barom 
-----	----	-----	------	-----	-----	------	------	-------	-----	----- 
00:00	70.6	70.6	70.6	69	59.9	0	0	---	0.00	30.082 
00:05	70.6	70.6	70.6	69	59.9	0	0	---	0.00	30.082 
00:10	70.4	70.4	70.4	69	59.7	0	0	---	0.00	30.082 
00:15	70.4	70.4	70.4	69	59.7	0	0	---	0.00	30.083 
00:20	70.3	70.3	70.3	69	59.6	0	0	---	0.00	30.083 
00:25	70.1	70.1	70.1	69	59.4	0	0	---	0.00	30.083 
00:30	70.1	70.1	70.1	69	59.4	0	0	---	0.00	30.087 
00:35	70.1	70.1	70.1	69	59.4	0	0	---	0.00	30.087 
00:40	69.9	69.9	69.9	69	59.3	0	0	---	0.00	30.087 
00:45	69.8	69.8	69.8	69	59.2	0	0	---	0.00	30.086 
00:50	69.6	69.6	69.6	69	59.0	0	0	---	0.00	30.086 
00:55	69.6	69.6	69.6	69	59.0	0	0	---	0.00	30.086 
01:00	69.6	69.6	69.6	69	59.0	0	0	---	0.00	30.084 
01:05	69.4	69.4	69.4	70	59.2	0	0	---	0.00	30.084 
01:10	69.4	69.4	69.4	70	59.2	0	0	---	0.00	30.084 
01:15	69.3	69.3	69.3	70	59.1	0	0	---	0.00	30.076 
01:20	69.1	69.1	69.1	71	59.3	0	0	---	0.00	30.076 
01:25	68.9	68.9	68.9	72	59.5	0	0	---	0.00	30.076 
01:30	68.8	68.8	68.8	73	59.8	0	0	---	0.00	30.081 
01:35	68.6	68.6	68.6	73	59.6	0	0	---	0.00	30.081 
01:40	68.4	68.4	68.4	73	59.4	0	0	---	0.00	30.081 
01:45	68.4	68.4	68.4	74	59.8	0	0	---	0.00	30.079 
01:50	68.4	68.4	68.4	74	59.8	0	0	---	0.00	30.079 
01:55	68.3	68.3	68.3	75	60.1	0	0	---	0.00	30.079 
02:00	68.1	68.1	68.1	75	59.9	0	0	---	0.00	30.077 
02:05	68.1	68.1	68.1	75	59.9	0	0	---	0.00	30.077 
02:10	67.9	67.9	67.9	75	59.7	0	0	---	0.00	30.077 
02:15	67.9	67.9	67.9	76	60.0	0	0	---	0.00	30.081 
02:20	67.8	67.8	67.8	76	59.9	0	0	---	0.00	30.081 
02:25	67.8	67.8	67.8	77	60.3	0	0	---	0.00	30.081 
02:30	67.8	67.8	67.8	77	60.3	0	0	---	0.00	30.071 
02:35	67.6	67.6	67.6	77	60.1	0	0	---	0.00	30.071 
02:40	67.6	67.6	67.6	77	60.1	0	0	---	0.00	30.071 
02:45	67.4	67.4	67.4	78	60.3	0	0	---	0.00	30.066 
02:50	67.4	67.4	67.4	78	60.3	0	0	---	0.00	30.066 
02:55	67.3	67.3	67.3	79	60.6	0	0	---	0.00	30.066 
03:00	67.3	67.3	67.3	79	60.6	0	0	---	0.00	30.059 
03:05	67.1	67.1	67.1	79	60.4	0	0	---	0.00	30.059 
03:10	67.1	67.1	67.1	80	60.7	0	0	---	0.00	30.059 
03:15	67.1	67.1	67.1	80	60.7	0	0	---	0.00	30.062 
03:20	67.1	67.1	67.1	80	60.7	0	0	---	0.00	30.062 
03:25	67.1	67.1	67.1	80	60.7	0	0	---	0.00	30.062 
03:30	67.1	67.1	67.1	81	61.1	0	0	---	0.00	30.073 
03:35	67.1	67.1	67.1	81	61.1	0	0	---	0.00	30.073 
03:40	67.1	67.1	67.1	81	61.1	0	0	---	0.00	30.073 
03:45	67.1	67.1	67.1	81	61.1	0	0	---	0.00	30.073 
03:50	67.1	67.1	67.1	82	61.4	0	0	---	0.00	30.073 
03:55	67.1	67.1	67.1	83	61.8	0	0	---	0.00	30.073 
04:00	66.9	66.9	66.9	83	61.6	0	0	---	0.00	30.073 
04:05	66.8	66.8	66.8	84	61.8	0	0	---	0.00	30.073 
04:10	66.6	66.6	66.6	85	61.9	0	0	---	0.00	30.073 
04:15	66.4	66.4	66.4	85	61.7	0	0	---	0.00	30.076 
04:20	66.3	66.3	66.3	86	62.0	0	0	---	0.00	30.076 
04:25	66.1	66.1	66.1	86	61.8	0	0	---	0.00	30.076 
04:30	66.0	66.0	66.0	87	62.0	0	0	---	0.00	30.076 
04:35	66.0	66.0	66.0	87	62.0	0	0	---	0.00	30.076 
04:40	65.8	65.8	65.8	87	61.8	0	0	---	0.00	30.076 
04:45	65.8	65.8	65.8	88	62.1	0	0	---	0.00	30.083 
04:50	65.8	65.8	65.8	88	62.1	0	0	---	0.00	30.083 
04:55	65.6	65.6	65.6	88	61.9	0	0	---	0.00	30.083 
05:00	65.6	65.6	65.6	88	61.9	0	0	---	0.00	30.088 
05:05	65.5	65.5	65.5	88	61.8	0	0	---	0.00	30.088 
05:10	65.3	65.3	65.3	87	61.3	0	0	---	0.00	30.088 
05:15	65.3	65.3	65.3	87	61.3	0	0	---	0.00	30.085 
05:20	65.2	65.2	65.2	87	61.2	0	0	---	0.00	30.085 
05:25	65.2	65.2	65.2	86	60.9	0	0	---	0.00	30.085 
05:30	65.2	65.2	65.2	86	60.9	0	0	---	0.00	30.084 
05:35	65.2	65.2	65.2	86	60.9	0	0	---	0.00	30.084 
05:40	65.0	65.0	65.0	86	60.7	0	0	---	0.00	30.084 
05:45	65.0	65.0	65.0	85	60.4	0	0	---	0.00	30.089 
05:50	65.0	65.0	65.0	86	60.7	0	0	---	0.00	30.089 
05:55	65.2	65.2	65.2	86	60.9	0	0	---	0.00	30.089 
06:00	65.0	65.0	65.0	86	60.7	0	0	---	0.00	30.085 
06:05	65.0	65.0	65.0	86	60.7	0	0	---	0.00	30.085 
06:10	65.0	65.0	65.0	86	60.7	0	0	---	0.00	30.085 
06:15	64.8	64.8	64.8	85	60.2	0	0	---	0.00	30.081 
06:20	64.8	64.8	64.8	84	59.8	0	0	---	0.00	30.081 
06:25	64.8	64.8	64.8	84	59.8	0	0	---	0.00	30.081 
06:30	64.8	64.8	64.8	84	59.8	0	0	---	0.00	30.079 
06:35	64.8	64.8	64.8	84	59.8	0	0	---	0.00	30.079 
06:40	64.8	64.8	64.8	84	59.8	0	0	---	0.00	30.079 
06:45	64.8	64.8	64.8	84	59.8	0	0	---	0.00	30.092 
06:50	64.8	64.8	64.8	83	59.5	0	0	---	0.00	30.092 
06:55	64.8	64.8	64.8	84	59.8	0	0	---	0.00	30.092 
07:00	64.8	64.8	64.8	84	59.8	0	0	---	0.00	30.094 
07:05	64.8	64.8	64.8	84	59.8	0	0	---	0.00	30.094 
07:10	64.7	64.7	64.7	84	59.7	0	0	---	0.00	30.094 
07:15	64.7	64.7	64.7	84	59.7	0	0	---	0.00	30.096 
07:20	64.7	64.7	64.7	84	59.7	0	0	---	0.00	30.096 
07:25	64.7	64.7	64.7	84	59.7	0	0	---	0.00	30.096 
07:30	64.7	64.7	64.7	84	59.7	0	0	---	0.00	30.092 
07:35	64.7	64.7	64.7	85	60.1	0	0	---	0.00	30.092 
07:40	64.7	64.7	64.7	85	60.1	0	0	---	0.00	30.092 
07:45	64.8	64.8	64.8	84	59.8	0	0	---	0.00	30.083 
07:50	65.0	65.0	65.0	84	60.0	0	0	---	0.00	30.083 
07:55	65.0	65.0	65.0	84	60.0	0	0	---	0.00	30.083 
08:00	65.2	65.2	65.2	82	59.6	0	0	---	0.00	30.080 
08:05	65.2	65.2	65.2	81	59.2	0	0	---	0.00	30.080 
08:10	65.3	65.3	65.3	81	59.3	0	0	---	0.00	30.080 
08:15	65.5	65.5	65.5	80	59.2	0	0	---	0.00	30.082 
08:20	65.6	65.6	65.6	79	58.9	0	0	---	0.00	30.082 
08:25	66.0	66.0	66.0	78	58.9	0	2	270	0.00	30.082 
08:30	66.3	66.3	66.3	77	58.9	1	3	270	0.00	30.078 
08:35	66.4	66.4	66.4	76	58.6	0	2	270	0.00	30.078 
08:40	66.4	66.4	66.4	76	58.6	0	2	270	0.00	30.078 
08:45	66.8	66.8	66.8	76	59.0	0	2	270	0.00	30.078 
08:50	66.8	66.8	66.8	75	58.6	0	1	270	0.00	30.078 
08:55	67.1	67.1	67.1	75	58.9	0	2	270	0.00	30.078 
09:00	67.3	67.3	67.3	74	58.7	0	2	270	0.00	30.078 
09:05	67.3	67.3	67.3	73	58.3	0	1	270	0.00	30.078 
09:10	67.4	67.4	67.4	73	58.4	0	3	270	0.00	30.078 
09:15	67.3	67.3	67.3	74	58.7	1	3	270	0.00	30.080 
09:20	67.3	67.3	67.3	75	59.1	0	1	270	0.00	30.080 
09:25	67.1	67.1	67.1	75	58.9	0	1	270	0.00	30.080 
09:30	67.1	67.1	67.1	75	58.9	0	1	270	0.00	30.081 
09:35	67.1	67.1	67.1	74	58.5	0	2	270	0.00	30.081 
09:40	67.1	67.1	67.1	74	58.5	0	1	270	0.00	30.081 
09:45	67.1	67.1	67.1	73	58.1	0	2	270	0.00	30.080 
09:50	67.1	67.1	67.1	73	58.1	0	2	292	0.00	30.080 
09:55	67.1	67.1	67.1	74	58.5	0	1	292	0.00	30.080 
10:00	67.1	67.1	67.1	74	58.5	0	1	292	0.00	30.080 
10:05	67.1	67.1	67.1	73	58.1	0	1	292	0.00	30.080 
10:10	66.9	66.9	66.9	71	57.2	1	3	292	0.00	30.080 
10:15	67.1	67.1	67.1	72	57.8	1	2	90	0.00	30.083 
10:20	67.1	67.1	67.1	71	57.4	0	3	90	0.00	30.083 
10:25	67.3	67.3	67.3	70	57.2	1	2	90	0.00	30.083 
10:30	67.6	67.6	67.6	70	57.5	0	2	90	0.00	30.084 
10:35	67.8	67.8	67.8	70	57.6	0	2	90	0.00	30.084 
10:40	68.1	68.1	68.1	67	56.7	0	2	90	0.00	30.084 
10:45	68.4	68.4	68.4	66	56.6	0	2	90	0.00	30.086 
10:50	68.8	68.8	68.8	67	57.4	0	1	90	0.00	30.086 
10:55	69.1	69.1	69.1	64	56.4	0	2	90	0.00	30.086 
11:00	69.8	69.8	69.8	64	57.1	0	1	90	0.00	30.085 
11:05	70.6	70.6	70.6	64	57.8	0	1	90	0.00	30.085 
11:10	71.1	71.1	71.1	62	57.4	0	2	90	0.00	30.085 
11:15	71.6	71.6	71.6	60	57.0	0	2	90	0.00	30.080 
11:20	72.5	72.5	72.5	57	56.4	0	3	112	0.00	30.080 
11:25	73.7	73.7	73.7	55	56.5	0	2	112	0.00	30.080 
11:30	74.6	74.6	74.6	52	55.8	1	2	112	0.00	30.077 
11:35	75.1	75.1	77.7	51	55.7	1	3	112	0.00	30.077 
11:40	75.4	75.4	77.7	43	51.3	0	2	135	0.00	30.077 
11:45	75.3	75.3	77.7	49	54.8	1	3	112	0.00	30.076 
11:50	75.1	75.1	77.7	48	54.1	1	3	112	0.00	30.076 
11:55	75.1	75.1	77.7	49	54.6	1	3	112	0.00	30.076 
12:00	75.6	75.6	77.9	47	53.9	0	2	112	0.00	30.073 
12:05	76.0	76.0	78.0	46	53.7	1	4	248	0.00	30.073 
12:10	76.7	76.7	78.3	44	53.1	1	4	112	0.00	30.073 
12:15	76.7	76.7	78.4	47	54.9	1	3	90	0.00	30.073 
12:20	76.5	76.5	78.3	48	55.3	0	2	90	0.00	30.073 
12:25	76.8	76.8	78.5	49	56.2	0	2	90	0.00	30.073 
12:30	77.6	77.6	78.8	47	55.8	1	3	90	0.00	30.066 
12:35	77.9	77.9	78.9	45	54.8	1	3	90	0.00	30.066 
12:40	78.1	78.1	79.0	45	55.0	1	3	90	0.00	30.066 
12:45	77.9	77.9	79.0	46	55.4	0	3	90	0.00	30.063 
12:50	78.1	78.1	79.2	48	56.8	0	2	90	0.00	30.063 
12:55	78.3	78.3	79.3	47	56.4	0	3	112	0.00	30.063 
13:00	78.5	78.5	79.4	47	56.6	0	3	112	0.00	30.062 
13:05	78.5	78.5	79.5	48	57.2	1	2	112	0.00	30.062 
13:10	78.5	78.5	79.5	48	57.2	1	2	112	0.00	30.062 
13:15	78.6	78.6	79.4	46	56.1	0	1	112	0.00	30.061 
13:20	78.5	78.5	79.4	47	56.6	0	1	112	0.00	30.061 
13:25	79.0	79.0	79.8	47	57.0	0	1	112	0.00	30.061 
13:30	79.6	79.6	80.1	46	57.0	0	3	112	0.00	30.053 
13:35	79.8	79.8	80.3	46	57.2	1	3	112	0.00	30.053 
13:40	79.9	79.9	80.4	46	57.2	0	2	112	0.00	30.053 
13:45	80.1	80.1	80.6	47	58.0	0	2	112	0.00	30.044 
13:50	80.3	80.3	80.7	46	57.6	1	3	112	0.00	30.044 
13:55	80.7	80.7	80.8	44	56.7	1	2	112	0.00	30.044 
14:00	80.7	80.7	80.9	45	57.4	1	3	112	0.00	30.037 
14:05	81.1	81.1	81.4	46	58.3	0	1	112	0.00	30.037 
14:10	81.4	81.4	81.6	46	58.6	1	4	112	0.00	30.037 
14:15	81.8	81.8	81.6	43	57.1	1	5	112	0.00	30.029 
14:20	81.4	81.4	81.5	45	58.0	2	5	90	0.00	30.029 
14:25	81.6	81.6	81.8	46	58.8	1	4	112	0.00	30.029 
14:30	81.6	81.6	81.7	45	58.2	2	5	90	0.00	30.023 
14:35	81.6	81.6	81.7	45	58.2	2	4	90	0.00	30.023 
14:40	81.6	81.6	81.7	45	58.2	1	4	90	0.00	30.023 
14:45	82.0	82.0	82.1	45	58.5	1	3	0	0.00	30.020 
14:50	82.4	82.4	82.2	43	57.6	1	4	90	0.00	30.020 
14:55	82.8	82.8	82.6	43	58.0	1	4	90	0.00	30.020 
15:00	82.8	82.8	82.4	42	57.3	2	5	112	0.00	30.012 
15:05	82.4	82.4	82.3	44	58.3	1	3	90	0.00	30.012 
15:10	83.0	83.0	82.9	44	58.8	0	3	90	0.00	30.012 
15:15	83.4	83.4	83.2	43	58.5	1	3	90	0.00	30.011 
15:20	83.2	83.2	83.4	46	60.2	1	4	90	0.00	30.011 
15:25	83.0	83.0	82.8	43	58.2	2	6	90	0.00	30.011 
15:30	83.6	83.6	83.0	41	57.4	1	3	225	0.00	30.006 
15:35	83.8	83.8	83.2	41	57.6	1	2	248	0.00	30.006 
15:40	83.6	83.6	82.9	40	56.7	0	2	248	0.00	30.006 
15:45	83.8	83.8	82.9	39	56.2	0	1	248	0.00	29.998 
15:50	83.8	83.8	83.2	41	57.6	1	2	248	0.00	29.998 
15:55	84.1	84.1	83.6	41	57.8	0	2	135	0.00	29.998 
16:00	84.1	84.1	83.6	41	57.8	1	3	315	0.00	29.996 
16:05	84.3	84.3	84.1	43	59.3	0	3	270	0.00	29.996 
16:10	84.1	84.1	83.2	39	56.4	0	1	338	0.00	29.996 
16:15	84.3	84.3	83.6	40	57.3	0	1	338	0.00	29.995 
16:20	84.0	84.0	83.1	39	56.3	1	3	292	0.00	29.995 
16:25	83.2	83.2	83.0	43	58.3	1	3	90	0.00	29.995 
16:30	83.2	83.2	82.7	41	57.0	0	3	90	0.00	29.995 
16:35	83.2	83.2	82.7	41	57.0	0	2	225	0.00	29.995 
16:40	83.6	83.6	82.9	40	56.7	0	2	270	0.00	29.995 
16:45	83.6	83.6	82.9	40	56.7	1	4	315	0.00	29.990 
16:50	83.4	83.4	82.9	41	57.2	0	2	315	0.00	29.990 
16:55	83.6	83.6	83.2	42	58.0	2	5	90	0.00	29.990 
17:00	84.0	84.0	83.1	39	56.3	1	6	270	0.00	29.985 
17:05	84.1	84.1	83.2	39	56.4	0	3	270	0.00	29.985 
17:10	84.5	84.5	84.0	41	58.2	0	2	270	0.00	29.985 
17:15	84.7	84.7	83.8	39	57.0	0	3	270	0.00	29.984 
17:20	84.1	84.1	83.2	39	56.4	0	2	270	0.00	29.984 
17:25	83.4	83.4	82.9	41	57.2	0	2	270	0.00	29.984 
17:30	83.2	83.2	82.8	42	57.7	0	1	270	0.00	29.983 
17:35	83.2	83.2	82.7	41	57.0	0	2	270	0.00	29.983 
17:40	83.2	83.2	83.1	44	59.0	0	0	---	0.00	29.983 
17:45	83.4	83.4	82.9	41	57.2	1	4	270	0.00	29.981 
17:50	83.6	83.6	83.2	42	58.0	1	3	112	0.00	29.981 
17:55	83.6	83.6	83.0	41	57.4	1	2	315	0.00	29.981 
18:00	83.4	83.4	82.9	41	57.2	0	1	315	0.00	29.980 
18:05	83.2	83.2	82.8	42	57.7	0	1	315	0.00	29.980 
18:10	83.2	83.2	82.8	42	57.7	0	2	315	0.00	29.980 
18:15	83.0	83.0	82.6	42	57.5	0	1	315	0.00	29.975 
18:20	82.8	82.8	82.4	42	57.3	0	1	315	0.00	29.975 
18:25	82.4	82.4	82.2	43	57.6	0	1	315	0.00	29.975 
18:30	82.2	82.2	82.0	43	57.4	0	0	---	0.00	29.977 
18:35	82.2	82.2	82.0	43	57.4	0	1	315	0.00	29.977 
18:40	82.2	82.2	82.0	43	57.4	0	1	315	0.00	29.977 
18:45	82.2	82.2	82.1	44	58.1	0	0	---	0.00	29.977 
18:50	82.2	82.2	81.9	42	56.8	0	2	338	0.00	29.977 
18:55	82.2	82.2	82.0	43	57.4	0	1	338	0.00	29.977 
19:00	82.0	82.0	81.8	43	57.3	0	1	338	0.00	29.976 
19:05	82.0	82.0	82.1	45	58.5	0	1	338	0.00	29.976 
19:10	81.8	81.8	82.0	46	59.0	1	3	0	0.00	29.976 
19:15	81.6	81.6	82.1	48	60.0	3	6	270	0.00	29.970 
19:20	81.4	81.4	81.9	48	59.8	1	3	270	0.00	29.970 
19:25	81.2	81.2	81.8	49	60.2	1	6	270	0.00	29.970 
19:30	81.2	81.2	81.9	50	60.8	1	4	270	0.00	29.967 
19:35	81.1	81.1	82.0	51	61.2	0	2	292	0.00	29.967 
19:40	80.7	80.7	81.8	53	62.0	0	1	292	0.00	29.967 
19:45	80.3	80.3	81.2	51	60.5	0	1	292	0.00	29.976 
19:50	80.1	80.1	81.2	53	61.4	0	1	292	0.00	29.976 
19:55	79.8	79.8	80.6	50	59.5	0	2	292	0.00	29.976 
20:00	79.6	79.6	80.5	51	59.9	0	0	---	0.00	29.983 
20:05	79.2	79.2	80.2	51	59.5	0	1	292	0.00	29.983 
20:10	79.0	79.0	80.0	51	59.3	0	0	---	0.00	29.983 
20:15	78.6	78.6	79.8	52	59.5	0	0	---	0.00	29.981 
20:20	78.3	78.3	79.6	53	59.7	0	0	---	0.00	29.981 
20:25	78.1	78.1	79.5	53	59.6	0	0	---	0.00	29.981 
20:30	77.7	77.7	79.2	54	59.7	0	0	---	0.00	29.983 
20:35	77.4	77.4	79.0	54	59.4	0	0	---	0.00	29.983 
20:40	77.0	77.0	78.7	54	59.1	0	0	---	0.00	29.983 
20:45	76.7	76.7	78.5	55	59.3	0	0	---	0.00	29.984 
20:50	76.3	76.3	78.3	56	59.4	0	0	---	0.00	29.984 
20:55	76.0	76.0	78.1	57	59.6	0	0	---	0.00	29.984 
21:00	75.6	75.6	77.8	58	59.8	0	0	---	0.00	29.984 
21:05	75.3	75.3	77.6	59	60.0	0	0	---	0.00	29.984 
21:10	74.9	74.9	74.9	59	59.6	0	0	---	0.00	29.984 
21:15	74.6	74.6	74.6	61	60.2	0	0	---	0.00	29.984 
21:20	74.2	74.2	74.2	62	60.3	0	0	---	0.00	29.984 
21:25	73.9	73.9	73.9	62	60.0	0	0	---	0.00	29.984 
21:30	73.5	73.5	73.5	64	60.6	0	0	---	0.00	29.986 
21:35	73.2	73.2	73.2	65	60.7	0	0	---	0.00	29.986 
21:40	72.8	72.8	72.8	66	60.8	0	0	---	0.00	29.986 
21:45	72.5	72.5	72.5	67	60.9	0	0	---	0.00	29.986 
21:50	72.3	72.3	72.3	68	61.1	0	0	---	0.00	29.986 
21:55	72.0	72.0	72.0	69	61.3	0	0	---	0.00	29.986 
22:00	71.8	71.8	71.8	70	61.5	0	0	---	0.00	29.988 
22:05	71.5	71.5	71.5	71	61.6	0	0	---	0.00	29.988 
22:10	71.3	71.3	71.3	71	61.4	0	0	---	0.00	29.988 
22:15	70.9	70.9	70.9	72	61.4	0	0	---	0.00	29.985 
22:20	70.8	70.8	70.8	73	61.7	0	0	---	0.00	29.985 
22:25	70.6	70.6	70.6	73	61.5	0	0	---	0.00	29.985 
22:30	70.3	70.3	70.3	74	61.6	0	0	---	0.00	29.982 
22:35	70.1	70.1	70.1	74	61.4	0	0	---	0.00	29.982 
22:40	69.9	69.9	69.9	75	61.6	0	0	---	0.00	29.982 
22:45	69.6	69.6	69.6	76	61.7	0	0	---	0.00	29.975 
22:50	69.4	69.4	69.4	76	61.5	0	0	---	0.00	29.975 
22:55	69.3	69.3	69.3	77	61.8	0	0	---	0.00	29.975 
23:00	69.1	69.1	69.1	77	61.6	0	0	---	0.00	29.979 
23:05	68.9	68.9	68.9	78	61.7	0	0	---	0.00	29.979 
23:10	68.8	68.8	68.8	79	62.0	0	0	---	0.00	29.979 
23:15	68.6	68.6	68.6	79	61.8	0	0	---	0.00	29.973 
23:20	68.4	68.4	68.4	79	61.6	0	0	---	0.00	29.973 
23:25	68.3	68.3	68.3	80	61.9	0	0	---	0.00	29.973 
23:30	68.1	68.1	68.1	81	62.0	0	0	---	0.00	29.975 
23:35	67.8	67.8	67.8	81	61.7	0	0	---	0.00	29.975 
23:40	67.6	67.6	67.6	81	61.6	0	0	---	0.00	29.975 
23:45	67.4	67.4	67.4	82	61.7	0	0	---	0.00	29.975 
23:50	67.4	67.4	67.4	82	61.7	0	0	---	0.00	29.975 
23:55	67.3	67.3	67.3	82	61.6	0	0	---	0.00	29.975 

CoCoRaHS
IN-AL-39
A2 Web Hosting
Creative Commons License
GoDaddy
search engine by freefind advanced

loaded 2018-11-17 23:40:26 • last modified 2010-11-18 10:43:29
Privacy PolicyDisclaimer
• wx.awcolley.com is powered by PmWiki v.2002016 •
• all content (unless otherwise noted) © 2018 A W Colley